sensor_id;sensor_type;location;lat;lon;timestamp;pressure;altitude;pressure_sealevel;temperature;humidity
51781;BME280;37844;57.126;24.288;2022-11-15T00:00:06;101904.59;;;3.90;100.00
51781;BME280;37844;57.126;24.288;2022-11-15T00:02:32;101911.38;;;3.89;100.00
51781;BME280;37844;57.126;24.288;2022-11-15T00:04:57;101904.94;;;3.96;100.00
51781;BME280;37844;57.126;24.288;2022-11-15T00:07:22;101898.09;;;3.95;100.00
51781;BME280;37844;57.126;24.288;2022-11-15T00:09:48;101893.75;;;3.94;100.00
51781;BME280;37844;57.126;24.288;2022-11-15T00:12:13;101881.53;;;3.88;100.00
51781;BME280;37844;57.126;24.288;2022-11-15T00:14:39;101885.44;;;3.96;100.00
51781;BME280;37844;57.126;24.288;2022-11-15T00:17:04;101879.44;;;3.96;100.00
51781;BME280;37844;57.126;24.288;2022-11-15T00:19:30;101883.56;;;3.94;100.00
51781;BME280;37844;57.126;24.288;2022-11-15T00:21:55;101871.94;;;3.84;100.00
51781;BME280;37844;57.126;24.288;2022-11-15T00:24:21;101849.34;;;3.75;100.00
51781;BME280;37844;57.126;24.288;2022-11-15T00:26:46;101862.72;;;3.86;100.00
51781;BME280;37844;57.126;24.288;2022-11-15T00:29:11;101860.16;;;3.86;100.00
51781;BME280;37844;57.126;24.288;2022-11-15T00:31:37;101865.03;;;3.96;100.00
51781;BME280;37844;57.126;24.288;2022-11-15T00:34:02;101859.50;;;4.03;100.00
51781;BME280;37844;57.126;24.288;2022-11-15T00:36:28;101853.31;;;4.00;100.00
51781;BME280;37844;57.126;24.288;2022-11-15T00:38:53;101849.09;;;3.86;100.00
51781;BME280;37844;57.126;24.288;2022-11-15T00:41:19;101833.09;;;3.88;100.00
51781;BME280;37844;57.126;24.288;2022-11-15T00:43:44;101834.31;;;3.95;100.00
51781;BME280;37844;57.126;24.288;2022-11-15T00:46:10;101827.97;;;4.03;100.00
51781;BME280;37844;57.126;24.288;2022-11-15T00:48:36;101830.28;;;4.13;100.00
51781;BME280;37844;57.126;24.288;2022-11-15T00:51:01;101833.59;;;4.12;100.00
51781;BME280;37844;57.126;24.288;2022-11-15T00:53:27;101831.56;;;4.21;100.00
51781;BME280;37844;57.126;24.288;2022-11-15T00:55:53;101828.31;;;4.24;100.00
51781;BME280;37844;57.126;24.288;2022-11-15T00:58:18;101830.34;;;4.30;100.00
51781;BME280;37844;57.126;24.288;2022-11-15T01:00:43;101824.88;;;4.23;100.00
51781;BME280;37844;57.126;24.288;2022-11-15T01:03:09;101822.69;;;4.30;100.00
51781;BME280;37844;57.126;24.288;2022-11-15T01:05:37;101821.97;;;4.17;100.00
51781;BME280;37844;57.126;24.288;2022-11-15T01:08:03;101820.06;;;4.13;100.00
51781;BME280;37844;57.126;24.288;2022-11-15T01:10:28;101818.50;;;4.15;100.00
51781;BME280;37844;57.126;24.288;2022-11-15T01:12:54;101811.28;;;4.08;100.00
51781;BME280;37844;57.126;24.288;2022-11-15T01:15:19;101816.72;;;4.14;100.00
51781;BME280;37844;57.126;24.288;2022-11-15T01:17:45;101800.84;;;4.20;100.00
51781;BME280;37844;57.126;24.288;2022-11-15T01:20:10;101801.56;;;4.17;100.00
51781;BME280;37844;57.126;24.288;2022-11-15T01:22:36;101809.13;;;4.31;100.00
51781;BME280;37844;57.126;24.288;2022-11-15T01:25:02;101806.19;;;4.39;100.00
51781;BME280;37844;57.126;24.288;2022-11-15T01:27:27;101804.44;;;4.38;100.00
51781;BME280;37844;57.126;24.288;2022-11-15T01:29:53;101798.09;;;4.46;100.00
51781;BME280;37844;57.126;24.288;2022-11-15T01:32:18;101797.91;;;4.43;100.00
51781;BME280;37844;57.126;24.288;2022-11-15T01:34:44;101793.50;;;4.41;100.00
51781;BME280;37844;57.126;24.288;2022-11-15T01:37:09;101781.66;;;4.27;100.00
51781;BME280;37844;57.126;24.288;2022-11-15T01:39:35;101782.63;;;4.29;100.00
51781;BME280;37844;57.126;24.288;2022-11-15T01:42:00;101775.38;;;4.36;100.00
51781;BME280;37844;57.126;24.288;2022-11-15T01:44:48;101774.75;;;4.40;100.00
51781;BME280;37844;57.126;24.288;2022-11-15T01:47:20;101769.19;;;4.47;100.00
51781;BME280;37844;57.126;24.288;2022-11-15T01:49:56;101763.78;;;4.41;100.00
51781;BME280;37844;57.126;24.288;2022-11-15T01:52:25;101763.94;;;4.44;100.00
51781;BME280;37844;57.126;24.288;2022-11-15T01:54:57;101764.72;;;4.43;100.00
51781;BME280;37844;57.126;24.288;2022-11-15T01:57:24;101760.16;;;4.38;100.00
51781;BME280;37844;57.126;24.288;2022-11-15T01:59:50;101756.50;;;4.33;100.00
51781;BME280;37844;57.126;24.288;2022-11-15T02:02:15;101752.50;;;4.38;100.00
51781;BME280;37844;57.126;24.288;2022-11-15T02:04:43;101755.22;;;4.41;100.00
51781;BME280;37844;57.126;24.288;2022-11-15T02:07:12;101751.28;;;4.31;100.00
51781;BME280;37844;57.126;24.288;2022-11-15T02:09:39;101747.97;;;4.32;100.00
51781;BME280;37844;57.126;24.288;2022-11-15T02:12:06;101753.63;;;4.43;100.00
51781;BME280;37844;57.126;24.288;2022-11-15T02:14:33;101752.69;;;4.57;100.00
51781;BME280;37844;57.126;24.288;2022-11-15T02:17:21;101741.03;;;4.62;100.00
51781;BME280;37844;57.126;24.288;2022-11-15T02:30:27;101721.50;;;4.46;100.00
51781;BME280;37844;57.126;24.288;2022-11-15T02:35:52;101715.09;;;4.55;100.00
51781;BME280;37844;57.126;24.288;2022-11-15T02:41:13;101713.91;;;4.64;100.00
51781;BME280;37844;57.126;24.288;2022-11-15T02:43:49;101698.28;;;4.58;100.00
51781;BME280;37844;57.126;24.288;2022-11-15T02:48:48;101698.59;;;4.64;100.00
51781;BME280;37844;57.126;24.288;2022-11-15T02:51:14;101694.06;;;4.75;100.00
51781;BME280;37844;57.126;24.288;2022-11-15T02:53:40;101686.94;;;4.70;100.00
51781;BME280;37844;57.126;24.288;2022-11-15T02:56:09;101678.09;;;4.63;100.00
51781;BME280;37844;57.126;24.288;2022-11-15T03:04:35;101674.25;;;4.71;100.00
51781;BME280;37844;57.126;24.288;2022-11-15T03:07:29;101676.00;;;4.72;100.00
51781;BME280;37844;57.126;24.288;2022-11-15T03:10:06;101663.91;;;4.68;100.00
51781;BME280;37844;57.126;24.288;2022-11-15T03:12:37;101657.91;;;4.51;100.00
51781;BME280;37844;57.126;24.288;2022-11-15T03:15:13;101645.16;;;4.51;100.00
51781;BME280;37844;57.126;24.288;2022-11-15T03:17:48;101628.16;;;4.35;100.00
51781;BME280;37844;57.126;24.288;2022-11-15T03:20:17;101613.78;;;4.21;100.00
51781;BME280;37844;57.126;24.288;2022-11-15T03:22:45;101616.75;;;4.29;100.00
51781;BME280;37844;57.126;24.288;2022-11-15T03:25:18;101612.03;;;4.20;100.00
51781;BME280;37844;57.126;24.288;2022-11-15T03:27:48;101601.44;;;4.29;100.00
51781;BME280;37844;57.126;24.288;2022-11-15T03:30:16;101592.09;;;4.29;100.00
51781;BME280;37844;57.126;24.288;2022-11-15T03:32:50;101583.94;;;4.20;100.00
51781;BME280;37844;57.126;24.288;2022-11-15T03:35:20;101586.09;;;4.12;100.00
51781;BME280;37844;57.126;24.288;2022-11-15T03:40:17;101573.53;;;4.15;100.00
51781;BME280;37844;57.126;24.288;2022-11-15T03:45:27;101556.78;;;4.04;100.00
51781;BME280;37844;57.126;24.288;2022-11-15T03:48:22;101558.22;;;3.99;100.00
51781;BME280;37844;57.126;24.288;2022-11-15T03:50:49;101535.81;;;4.10;100.00
51781;BME280;37844;57.126;24.288;2022-11-15T03:53:15;101548.06;;;4.00;100.00
51781;BME280;37844;57.126;24.288;2022-11-15T03:55:41;101540.13;;;4.11;100.00
51781;BME280;37844;57.126;24.288;2022-11-15T03:58:06;101549.19;;;4.06;100.00
51781;BME280;37844;57.126;24.288;2022-11-15T04:00:32;101528.00;;;4.07;100.00
51781;BME280;37844;57.126;24.288;2022-11-15T04:02:58;101537.72;;;4.14;100.00
51781;BME280;37844;57.126;24.288;2022-11-15T04:05:23;101526.31;;;4.07;100.00
51781;BME280;37844;57.126;24.288;2022-11-15T04:07:48;101524.81;;;4.11;100.00
51781;BME280;37844;57.126;24.288;2022-11-15T04:10:14;101525.13;;;4.17;100.00
51781;BME280;37844;57.126;24.288;2022-11-15T04:12:42;101522.41;;;4.30;100.00
51781;BME280;37844;57.126;24.288;2022-11-15T04:15:11;101524.88;;;4.29;100.00
51781;BME280;37844;57.126;24.288;2022-11-15T04:20:09;101516.09;;;4.23;100.00
51781;BME280;37844;57.126;24.288;2022-11-15T04:22:55;101499.44;;;4.30;100.00
51781;BME280;37844;57.126;24.288;2022-11-15T04:25:40;101499.44;;;4.30;100.00
51781;BME280;37844;57.126;24.288;2022-11-15T04:28:05;101510.50;;;4.31;100.00
51781;BME280;37844;57.126;24.288;2022-11-15T04:30:31;101513.53;;;4.40;100.00
51781;BME280;37844;57.126;24.288;2022-11-15T04:32:56;101513.66;;;4.43;100.00
51781;BME280;37844;57.126;24.288;2022-11-15T04:35:22;101511.75;;;4.39;100.00
51781;BME280;37844;57.126;24.288;2022-11-15T04:37:47;101495.66;;;4.40;100.00
51781;BME280;37844;57.126;24.288;2022-11-15T04:40:13;101498.97;;;4.55;100.00
51781;BME280;37844;57.126;24.288;2022-11-15T04:42:40;101501.06;;;4.46;100.00
51781;BME280;37844;57.126;24.288;2022-11-15T04:45:07;101505.53;;;4.50;100.00
51781;BME280;37844;57.126;24.288;2022-11-15T04:47:32;101506.47;;;4.52;100.00
51781;BME280;37844;57.126;24.288;2022-11-15T04:49:58;101501.69;;;4.58;100.00
51781;BME280;37844;57.126;24.288;2022-11-15T04:52:23;101501.09;;;4.64;100.00
51781;BME280;37844;57.126;24.288;2022-11-15T04:54:48;101492.44;;;4.60;100.00
51781;BME280;37844;57.126;24.288;2022-11-15T04:57:14;101487.31;;;4.60;100.00
51781;BME280;37844;57.126;24.288;2022-11-15T04:59:40;101486.50;;;4.61;100.00
51781;BME280;37844;57.126;24.288;2022-11-15T05:02:05;101493.00;;;4.55;100.00
51781;BME280;37844;57.126;24.288;2022-11-15T05:04:31;101494.53;;;4.69;100.00
51781;BME280;37844;57.126;24.288;2022-11-15T05:06:56;101483.16;;;4.62;100.00
51781;BME280;37844;57.126;24.288;2022-11-15T05:09:21;101463.88;;;4.51;100.00
51781;BME280;37844;57.126;24.288;2022-11-15T05:11:47;101478.94;;;4.63;100.00
51781;BME280;37844;57.126;24.288;2022-11-15T05:14:13;101471.19;;;4.61;100.00
51781;BME280;37844;57.126;24.288;2022-11-15T05:16:39;101480.53;;;4.79;100.00
51781;BME280;37844;57.126;24.288;2022-11-15T05:19:05;101468.50;;;4.76;100.00
51781;BME280;37844;57.126;24.288;2022-11-15T05:21:31;101464.25;;;4.77;100.00
51781;BME280;37844;57.126;24.288;2022-11-15T05:23:58;101476.59;;;4.85;100.00
51781;BME280;37844;57.126;24.288;2022-11-15T05:26:23;101479.72;;;4.98;100.00
51781;BME280;37844;57.126;24.288;2022-11-15T05:28:54;101459.06;;;4.93;100.00
51781;BME280;37844;57.126;24.288;2022-11-15T05:31:20;101471.28;;;4.99;100.00
51781;BME280;37844;57.126;24.288;2022-11-15T05:33:46;101457.03;;;5.04;100.00
51781;BME280;37844;57.126;24.288;2022-11-15T05:36:21;101463.97;;;5.06;100.00
51781;BME280;37844;57.126;24.288;2022-11-15T05:38:50;101455.22;;;5.01;100.00
51781;BME280;37844;57.126;24.288;2022-11-15T05:41:17;101450.97;;;5.02;100.00
51781;BME280;37844;57.126;24.288;2022-11-15T05:43:43;101445.25;;;5.07;100.00
51781;BME280;37844;57.126;24.288;2022-11-15T05:46:10;101426.59;;;4.91;100.00
51781;BME280;37844;57.126;24.288;2022-11-15T05:48:41;101435.56;;;5.00;100.00
51781;BME280;37844;57.126;24.288;2022-11-15T05:51:08;101427.16;;;5.03;100.00
51781;BME280;37844;57.126;24.288;2022-11-15T05:53:34;101434.47;;;4.95;100.00
51781;BME280;37844;57.126;24.288;2022-11-15T05:56:09;101419.44;;;4.83;100.00
51781;BME280;37844;57.126;24.288;2022-11-15T05:58:36;101415.16;;;4.82;100.00
51781;BME280;37844;57.126;24.288;2022-11-15T06:01:02;101419.38;;;5.00;100.00
51781;BME280;37844;57.126;24.288;2022-11-15T06:03:28;101423.75;;;5.02;100.00
51781;BME280;37844;57.126;24.288;2022-11-15T06:05:53;101418.59;;;5.01;100.00
51781;BME280;37844;57.126;24.288;2022-11-15T06:08:19;101422.78;;;5.00;100.00
51781;BME280;37844;57.126;24.288;2022-11-15T06:10:44;101424.59;;;5.03;100.00
51781;BME280;37844;57.126;24.288;2022-11-15T06:13:09;101417.03;;;5.04;100.00
51781;BME280;37844;57.126;24.288;2022-11-15T06:15:41;101430.16;;;5.12;100.00
51781;BME280;37844;57.126;24.288;2022-11-15T06:18:07;101421.69;;;5.13;100.00
51781;BME280;37844;57.126;24.288;2022-11-15T06:20:32;101420.31;;;5.02;100.00
51781;BME280;37844;57.126;24.288;2022-11-15T06:23:03;101415.06;;;4.99;100.00
51781;BME280;37844;57.126;24.288;2022-11-15T06:25:29;101417.34;;;4.93;100.00
51781;BME280;37844;57.126;24.288;2022-11-15T06:27:56;101415.59;;;4.92;100.00
51781;BME280;37844;57.126;24.288;2022-11-15T06:30:22;101403.56;;;4.89;100.00
51781;BME280;37844;57.126;24.288;2022-11-15T06:32:48;101405.81;;;4.83;100.00
51781;BME280;37844;57.126;24.288;2022-11-15T06:35:14;101413.81;;;4.91;100.00
51781;BME280;37844;57.126;24.288;2022-11-15T06:37:40;101414.78;;;4.93;100.00
51781;BME280;37844;57.126;24.288;2022-11-15T06:40:06;101401.13;;;4.92;100.00
51781;BME280;37844;57.126;24.288;2022-11-15T06:42:32;101403.69;;;4.92;100.00
51781;BME280;37844;57.126;24.288;2022-11-15T06:44:58;101395.00;;;4.88;100.00
51781;BME280;37844;57.126;24.288;2022-11-15T06:47:24;101387.94;;;4.83;100.00
51781;BME280;37844;57.126;24.288;2022-11-15T06:49:49;101393.69;;;4.79;100.00
51781;BME280;37844;57.126;24.288;2022-11-15T06:52:15;101392.22;;;4.84;100.00
51781;BME280;37844;57.126;24.288;2022-11-15T06:54:40;101393.13;;;4.84;100.00
51781;BME280;37844;57.126;24.288;2022-11-15T06:57:06;101387.53;;;4.93;100.00
51781;BME280;37844;57.126;24.288;2022-11-15T06:59:31;101391.13;;;4.97;100.00
51781;BME280;37844;57.126;24.288;2022-11-15T07:01:56;101385.81;;;4.92;100.00
51781;BME280;37844;57.126;24.288;2022-11-15T07:04:22;101392.09;;;4.99;100.00
51781;BME280;37844;57.126;24.288;2022-11-15T07:06:48;101395.91;;;4.89;100.00
51781;BME280;37844;57.126;24.288;2022-11-15T07:09:14;101390.25;;;4.96;100.00
51781;BME280;37844;57.126;24.288;2022-11-15T07:11:40;101386.69;;;4.93;100.00
51781;BME280;37844;57.126;24.288;2022-11-15T07:14:05;101385.59;;;5.05;100.00
51781;BME280;37844;57.126;24.288;2022-11-15T07:16:30;101383.16;;;5.08;100.00
51781;BME280;37844;57.126;24.288;2022-11-15T07:18:56;101390.22;;;5.14;100.00
51781;BME280;37844;57.126;24.288;2022-11-15T07:21:22;101387.94;;;5.20;100.00
51781;BME280;37844;57.126;24.288;2022-11-15T07:23:47;101385.84;;;5.31;100.00
51781;BME280;37844;57.126;24.288;2022-11-15T07:26:13;101385.19;;;5.35;100.00
51781;BME280;37844;57.126;24.288;2022-11-15T07:28:38;101386.25;;;5.40;100.00
51781;BME280;37844;57.126;24.288;2022-11-15T07:31:06;101380.50;;;5.44;100.00
51781;BME280;37844;57.126;24.288;2022-11-15T07:33:32;101376.84;;;5.39;100.00
51781;BME280;37844;57.126;24.288;2022-11-15T07:36:05;101375.50;;;5.47;100.00
51781;BME280;37844;57.126;24.288;2022-11-15T07:38:31;101370.66;;;5.53;100.00
51781;BME280;37844;57.126;24.288;2022-11-15T07:40:58;101368.69;;;5.48;100.00
51781;BME280;37844;57.126;24.288;2022-11-15T07:43:24;101358.09;;;5.39;100.00
51781;BME280;37844;57.126;24.288;2022-11-15T07:45:50;101357.34;;;5.41;100.00
51781;BME280;37844;57.126;24.288;2022-11-15T07:48:15;101353.34;;;5.48;100.00
51781;BME280;37844;57.126;24.288;2022-11-15T07:50:42;101355.66;;;5.42;100.00
51781;BME280;37844;57.126;24.288;2022-11-15T07:53:09;101354.19;;;5.47;100.00
51781;BME280;37844;57.126;24.288;2022-11-15T07:55:34;101357.13;;;5.56;100.00
51781;BME280;37844;57.126;24.288;2022-11-15T07:58:07;101350.59;;;5.63;100.00
51781;BME280;37844;57.126;24.288;2022-11-15T08:00:33;101339.75;;;5.68;100.00
51781;BME280;37844;57.126;24.288;2022-11-15T08:03:13;101348.56;;;5.75;100.00
51781;BME280;37844;57.126;24.288;2022-11-15T08:05:40;101347.81;;;5.78;100.00
51781;BME280;37844;57.126;24.288;2022-11-15T08:08:09;101343.53;;;5.77;100.00
51781;BME280;37844;57.126;24.288;2022-11-15T08:10:34;101337.91;;;5.85;100.00
51781;BME280;37844;57.126;24.288;2022-11-15T08:13:02;101338.00;;;5.88;100.00
51781;BME280;37844;57.126;24.288;2022-11-15T08:15:29;101340.66;;;5.90;100.00
51781;BME280;37844;57.126;24.288;2022-11-15T08:17:56;101329.81;;;5.95;100.00
51781;BME280;37844;57.126;24.288;2022-11-15T08:20:22;101327.44;;;6.00;100.00
51781;BME280;37844;57.126;24.288;2022-11-15T08:22:48;101326.19;;;6.11;100.00
51781;BME280;37844;57.126;24.288;2022-11-15T08:25:13;101327.13;;;6.13;100.00
51781;BME280;37844;57.126;24.288;2022-11-15T08:27:39;101324.66;;;6.15;100.00
51781;BME280;37844;57.126;24.288;2022-11-15T08:30:05;101323.22;;;6.22;100.00
51781;BME280;37844;57.126;24.288;2022-11-15T08:32:31;101323.44;;;6.28;100.00
51781;BME280;37844;57.126;24.288;2022-11-15T08:34:57;101322.13;;;6.37;100.00
51781;BME280;37844;57.126;24.288;2022-11-15T08:37:22;101313.75;;;6.42;100.00
51781;BME280;37844;57.126;24.288;2022-11-15T08:39:48;101312.34;;;6.50;100.00
51781;BME280;37844;57.126;24.288;2022-11-15T08:42:13;101315.09;;;6.54;100.00
51781;BME280;37844;57.126;24.288;2022-11-15T08:44:41;101307.66;;;6.61;100.00
51781;BME280;37844;57.126;24.288;2022-11-15T08:47:07;101315.63;;;6.68;100.00
51781;BME280;37844;57.126;24.288;2022-11-15T08:49:32;101310.94;;;6.80;100.00
51781;BME280;37844;57.126;24.288;2022-11-15T08:51:58;101311.53;;;6.96;100.00
51781;BME280;37844;57.126;24.288;2022-11-15T08:54:23;101306.16;;;7.12;100.00
51781;BME280;37844;57.126;24.288;2022-11-15T08:56:48;101301.34;;;7.21;100.00
51781;BME280;37844;57.126;24.288;2022-11-15T08:59:14;101298.28;;;7.32;100.00
51781;BME280;37844;57.126;24.288;2022-11-15T09:01:39;101298.53;;;7.39;100.00
51781;BME280;37844;57.126;24.288;2022-11-15T09:04:05;101297.84;;;7.43;100.00
51781;BME280;37844;57.126;24.288;2022-11-15T09:06:30;101293.97;;;7.55;100.00
51781;BME280;37844;57.126;24.288;2022-11-15T09:08:57;101292.28;;;7.57;100.00
51781;BME280;37844;57.126;24.288;2022-11-15T09:11:22;101296.97;;;7.69;100.00
51781;BME280;37844;57.126;24.288;2022-11-15T09:13:49;101292.03;;;7.75;100.00
51781;BME280;37844;57.126;24.288;2022-11-15T09:16:15;101289.69;;;7.81;100.00
51781;BME280;37844;57.126;24.288;2022-11-15T09:18:41;101295.88;;;7.88;100.00
51781;BME280;37844;57.126;24.288;2022-11-15T09:21:07;101291.03;;;7.97;100.00
51781;BME280;37844;57.126;24.288;2022-11-15T09:23:33;101280.91;;;8.00;100.00
51781;BME280;37844;57.126;24.288;2022-11-15T09:25:59;101272.41;;;8.02;100.00
51781;BME280;37844;57.126;24.288;2022-11-15T09:28:27;101282.91;;;8.10;100.00
51781;BME280;37844;57.126;24.288;2022-11-15T09:30:56;101279.38;;;8.06;100.00
51781;BME280;37844;57.126;24.288;2022-11-15T09:33:22;101278.59;;;8.09;100.00
51781;BME280;37844;57.126;24.288;2022-11-15T09:35:48;101281.94;;;8.06;100.00
51781;BME280;37844;57.126;24.288;2022-11-15T09:38:13;101277.22;;;8.19;100.00
51781;BME280;37844;57.126;24.288;2022-11-15T09:40:39;101266.09;;;8.20;100.00
51781;BME280;37844;57.126;24.288;2022-11-15T09:48:42;101269.44;;;8.44;100.00
51781;BME280;37844;57.126;24.288;2022-11-15T09:51:14;101269.59;;;8.49;100.00
51781;BME280;37844;57.126;24.288;2022-11-15T09:54:03;101260.88;;;8.44;100.00
51781;BME280;37844;57.126;24.288;2022-11-15T09:56:31;101256.72;;;8.47;100.00
51781;BME280;37844;57.126;24.288;2022-11-15T10:04:27;101250.94;;;8.55;100.00
51781;BME280;37844;57.126;24.288;2022-11-15T10:07:11;101249.56;;;8.67;100.00
51781;BME280;37844;57.126;24.288;2022-11-15T10:09:45;101243.44;;;8.62;100.00
51781;BME280;37844;57.126;24.288;2022-11-15T10:12:13;101239.34;;;8.69;100.00
51781;BME280;37844;57.126;24.288;2022-11-15T10:14:39;101245.28;;;8.68;100.00
51781;BME280;37844;57.126;24.288;2022-11-15T10:23:10;101233.44;;;8.73;100.00
51781;BME280;37844;57.126;24.288;2022-11-15T10:25:30;101237.00;;;8.77;100.00
51781;BME280;37844;57.126;24.288;2022-11-15T10:28:28;101223.22;;;8.75;100.00
51781;BME280;37844;57.126;24.288;2022-11-15T10:30:56;101225.97;;;8.81;100.00
51781;BME280;37844;57.126;24.288;2022-11-15T10:33:35;101221.78;;;8.84;100.00
51781;BME280;37844;57.126;24.288;2022-11-15T10:46:42;101230.28;;;9.13;100.00
51781;BME280;37844;57.126;24.288;2022-11-15T10:52:01;101229.66;;;9.22;100.00
51781;BME280;37844;57.126;24.288;2022-11-15T10:54:42;101229.25;;;9.07;100.00
51781;BME280;37844;57.126;24.288;2022-11-15T10:57:19;101232.81;;;9.12;100.00
51781;BME280;37844;57.126;24.288;2022-11-15T10:59:51;101229.78;;;8.95;100.00
51781;BME280;37844;57.126;24.288;2022-11-15T11:02:34;101236.72;;;8.99;100.00
51781;BME280;37844;57.126;24.288;2022-11-15T11:05:03;101228.50;;;8.79;100.00
51781;BME280;37844;57.126;24.288;2022-11-15T11:07:34;101246.34;;;8.75;100.00
51781;BME280;37844;57.126;24.288;2022-11-15T11:10:21;101244.97;;;8.86;100.00
51781;BME280;37844;57.126;24.288;2022-11-15T11:12:46;101235.78;;;8.64;100.00
51781;BME280;37844;57.126;24.288;2022-11-15T11:15:14;101235.31;;;8.48;100.00
51781;BME280;37844;57.126;24.288;2022-11-15T11:17:54;101234.66;;;8.56;100.00
51781;BME280;37844;57.126;24.288;2022-11-15T11:20:37;101241.00;;;8.67;100.00
51781;BME280;37844;57.126;24.288;2022-11-15T11:28:57;101236.28;;;8.82;100.00
51781;BME280;37844;57.126;24.288;2022-11-15T11:34:54;101234.84;;;8.62;100.00
51781;BME280;37844;57.126;24.288;2022-11-15T11:43:28;101226.50;;;8.69;100.00
51781;BME280;37844;57.126;24.288;2022-11-15T11:46:13;101220.97;;;8.55;100.00
51781;BME280;37844;57.126;24.288;2022-11-15T11:48:42;101222.47;;;8.48;100.00
51781;BME280;37844;57.126;24.288;2022-11-15T11:51:25;101228.47;;;8.49;100.00
51781;BME280;37844;57.126;24.288;2022-11-15T11:54:06;101230.50;;;8.31;100.00
51781;BME280;37844;57.126;24.288;2022-11-15T11:56:39;101232.41;;;8.38;100.00
51781;BME280;37844;57.126;24.288;2022-11-15T11:59:37;101222.78;;;8.31;100.00
51781;BME280;37844;57.126;24.288;2022-11-15T12:05:03;101231.16;;;8.25;100.00
51781;BME280;37844;57.126;24.288;2022-11-15T12:07:32;101228.16;;;8.11;100.00
51781;BME280;37844;57.126;24.288;2022-11-15T12:10:23;101229.22;;;8.18;100.00
51781;BME280;37844;57.126;24.288;2022-11-15T12:13:04;101233.22;;;8.08;100.00
51781;BME280;37844;57.126;24.288;2022-11-15T12:15:42;101233.13;;;8.05;100.00
51781;BME280;37844;57.126;24.288;2022-11-15T12:18:14;101232.28;;;8.06;100.00
51781;BME280;37844;57.126;24.288;2022-11-15T12:20:49;101225.19;;;7.97;100.00
51781;BME280;37844;57.126;24.288;2022-11-15T12:23:23;101230.13;;;7.91;100.00
51781;BME280;37844;57.126;24.288;2022-11-15T12:25:57;101234.34;;;7.89;100.00
51781;BME280;37844;57.126;24.288;2022-11-15T12:28:42;101229.00;;;7.83;100.00
51781;BME280;37844;57.126;24.288;2022-11-15T12:31:29;101221.34;;;7.84;100.00
51781;BME280;37844;57.126;24.288;2022-11-15T12:34:03;101228.03;;;7.79;100.00
51781;BME280;37844;57.126;24.288;2022-11-15T12:36:40;101230.25;;;7.69;100.00
51781;BME280;37844;57.126;24.288;2022-11-15T12:39:08;101228.47;;;7.66;100.00
51781;BME280;37844;57.126;24.288;2022-11-15T12:41:43;101239.09;;;7.77;100.00
51781;BME280;37844;57.126;24.288;2022-11-15T12:44:56;101229.44;;;7.70;100.00
51781;BME280;37844;57.126;24.288;2022-11-15T12:46:59;101242.44;;;7.74;100.00
51781;BME280;37844;57.126;24.288;2022-11-15T13:02:39;101241.59;;;7.50;100.00
51781;BME280;37844;57.126;24.288;2022-11-15T13:17:52;101232.63;;;7.37;100.00
51781;BME280;37844;57.126;24.288;2022-11-15T13:20:20;101229.03;;;7.32;100.00
51781;BME280;37844;57.126;24.288;2022-11-15T13:22:52;101226.25;;;7.26;100.00
51781;BME280;37844;57.126;24.288;2022-11-15T13:27:52;101232.63;;;7.37;100.00
51781;BME280;37844;57.126;24.288;2022-11-15T13:30:24;101228.19;;;7.31;100.00
51781;BME280;37844;57.126;24.288;2022-11-15T13:32:51;101234.69;;;7.21;100.00
51781;BME280;37844;57.126;24.288;2022-11-15T13:35:27;101239.22;;;7.29;100.00
51781;BME280;37844;57.126;24.288;2022-11-15T13:37:55;101243.66;;;7.34;100.00
51781;BME280;37844;57.126;24.288;2022-11-15T13:40:28;101239.50;;;7.38;100.00
51781;BME280;37844;57.126;24.288;2022-11-15T13:42:56;101237.59;;;7.32;100.00
51781;BME280;37844;57.126;24.288;2022-11-15T13:45:23;101244.38;;;7.30;100.00
51781;BME280;37844;57.126;24.288;2022-11-15T13:47:54;101239.16;;;7.27;100.00
51781;BME280;37844;57.126;24.288;2022-11-15T13:50:32;101252.72;;;7.25;100.00
51781;BME280;37844;57.126;24.288;2022-11-15T13:53:01;101247.50;;;7.21;100.00
51781;BME280;37844;57.126;24.288;2022-11-15T13:55:29;101232.94;;;6.96;100.00
51781;BME280;37844;57.126;24.288;2022-11-15T13:58:00;101250.97;;;7.23;100.00
51781;BME280;37844;57.126;24.288;2022-11-15T14:00:42;101242.63;;;7.29;100.00
51781;BME280;37844;57.126;24.288;2022-11-15T14:03:32;101252.50;;;7.18;100.00
51781;BME280;37844;57.126;24.288;2022-11-15T14:06:08;101259.50;;;7.22;100.00
51781;BME280;37844;57.126;24.288;2022-11-15T14:08:38;101257.69;;;7.20;100.00
51781;BME280;37844;57.126;24.288;2022-11-15T14:11:12;101261.34;;;7.27;100.00
51781;BME280;37844;57.126;24.288;2022-11-15T14:13:38;101262.56;;;7.38;100.00
51781;BME280;37844;57.126;24.288;2022-11-15T14:16:17;101260.75;;;7.34;100.00
51781;BME280;37844;57.126;24.288;2022-11-15T14:18:52;101255.56;;;7.32;100.00
51781;BME280;37844;57.126;24.288;2022-11-15T14:21:18;101254.63;;;7.30;100.00
51781;BME280;37844;57.126;24.288;2022-11-15T14:23:44;101256.16;;;7.25;100.00
51781;BME280;37844;57.126;24.288;2022-11-15T14:26:32;101243.28;;;7.23;100.00
51781;BME280;37844;57.126;24.288;2022-11-15T14:29:27;101250.00;;;7.20;100.00
51781;BME280;37844;57.126;24.288;2022-11-15T14:31:54;101255.47;;;7.29;100.00
51781;BME280;37844;57.126;24.288;2022-11-15T14:34:34;101257.97;;;7.28;100.00
51781;BME280;37844;57.126;24.288;2022-11-15T14:36:59;101261.44;;;7.30;100.00
51781;BME280;37844;57.126;24.288;2022-11-15T14:39:25;101257.94;;;7.26;100.00